sensor_id;sensor_type;location;lat;lon;timestamp;temperature;humidity
78649;DHT22;67962;47.310;9.642;2023-03-23T00:01:05;12.40;58.20
78649;DHT22;67962;47.310;9.642;2023-03-23T00:03:31;12.30;58.00
78649;DHT22;67962;47.310;9.642;2023-03-23T00:06:00;12.10;58.50
78649;DHT22;67962;47.310;9.642;2023-03-23T00:08:28;12.00;58.90
78649;DHT22;67962;47.310;9.642;2023-03-23T00:10:53;12.00;59.00
78649;DHT22;67962;47.310;9.642;2023-03-23T00:13:26;12.00;59.40
78649;DHT22;67962;47.310;9.642;2023-03-23T00:15:52;11.90;59.20
78649;DHT22;67962;47.310;9.642;2023-03-23T00:18:21;11.90;59.30
78649;DHT22;67962;47.310;9.642;2023-03-23T00:20:52;12.00;58.80
78649;DHT22;67962;47.310;9.642;2023-03-23T00:23:20;12.00;58.20
78649;DHT22;67962;47.310;9.642;2023-03-23T00:25:53;12.10;58.00
78649;DHT22;67962;47.310;9.642;2023-03-23T00:28:22;12.10;57.90
78649;DHT22;67962;47.310;9.642;2023-03-23T00:31:02;12.20;57.70
78649;DHT22;67962;47.310;9.642;2023-03-23T00:33:30;12.20;57.90
78649;DHT22;67962;47.310;9.642;2023-03-23T00:35:59;12.10;58.00
78649;DHT22;67962;47.310;9.642;2023-03-23T00:38:25;12.10;58.10
78649;DHT22;67962;47.310;9.642;2023-03-23T00:40:51;12.20;57.70
78649;DHT22;67962;47.310;9.642;2023-03-23T00:43:18;12.10;57.50
78649;DHT22;67962;47.310;9.642;2023-03-23T00:45:45;12.10;57.50
78649;DHT22;67962;47.310;9.642;2023-03-23T00:48:19;12.20;57.30
78649;DHT22;67962;47.310;9.642;2023-03-23T00:50:45;12.20;57.40
78649;DHT22;67962;47.310;9.642;2023-03-23T00:53:11;12.10;57.60
78649;DHT22;67962;47.310;9.642;2023-03-23T00:55:37;12.10;57.90
78649;DHT22;67962;47.310;9.642;2023-03-23T00:58:02;12.20;58.10
78649;DHT22;67962;47.310;9.642;2023-03-23T01:00:28;12.20;57.90
78649;DHT22;67962;47.310;9.642;2023-03-23T01:02:54;12.20;57.90
78649;DHT22;67962;47.310;9.642;2023-03-23T01:05:20;12.20;58.00
78649;DHT22;67962;47.310;9.642;2023-03-23T01:07:46;12.20;58.30
78649;DHT22;67962;47.310;9.642;2023-03-23T01:10:13;12.00;58.20
78649;DHT22;67962;47.310;9.642;2023-03-23T01:12:42;11.90;58.60
78649;DHT22;67962;47.310;9.642;2023-03-23T01:15:09;11.90;59.10
78649;DHT22;67962;47.310;9.642;2023-03-23T01:17:34;11.80;59.50
78649;DHT22;67962;47.310;9.642;2023-03-23T01:20:00;11.70;59.50
78649;DHT22;67962;47.310;9.642;2023-03-23T01:22:26;11.80;59.50
78649;DHT22;67962;47.310;9.642;2023-03-23T01:24:52;11.80;59.70
78649;DHT22;67962;47.310;9.642;2023-03-23T01:27:17;11.80;59.40
78649;DHT22;67962;47.310;9.642;2023-03-23T01:29:43;11.90;59.30
78649;DHT22;67962;47.310;9.642;2023-03-23T01:32:09;11.80;59.40
78649;DHT22;67962;47.310;9.642;2023-03-23T01:34:35;11.90;59.10
78649;DHT22;67962;47.310;9.642;2023-03-23T01:37:01;11.80;59.10
78649;DHT22;67962;47.310;9.642;2023-03-23T01:39:27;11.70;59.40
78649;DHT22;67962;47.310;9.642;2023-03-23T01:41:52;11.80;60.50
78649;DHT22;67962;47.310;9.642;2023-03-23T01:46:44;11.80;59.40
78649;DHT22;67962;47.310;9.642;2023-03-23T01:49:15;11.80;59.30
78649;DHT22;67962;47.310;9.642;2023-03-23T01:52:07;11.90;59.20
78649;DHT22;67962;47.310;9.642;2023-03-23T01:54:34;11.80;59.40
78649;DHT22;67962;47.310;9.642;2023-03-23T01:57:04;11.70;59.70
78649;DHT22;67962;47.310;9.642;2023-03-23T01:59:32;11.70;59.70
78649;DHT22;67962;47.310;9.642;2023-03-23T02:01:59;11.70;59.70
78649;DHT22;67962;47.310;9.642;2023-03-23T02:04:27;11.70;59.80
78649;DHT22;67962;47.310;9.642;2023-03-23T02:06:54;11.70;59.80
78649;DHT22;67962;47.310;9.642;2023-03-23T02:09:26;11.70;60.10
78649;DHT22;67962;47.310;9.642;2023-03-23T02:11:53;11.70;60.30
78649;DHT22;67962;47.310;9.642;2023-03-23T02:14:20;11.70;60.30
78649;DHT22;67962;47.310;9.642;2023-03-23T02:20:13;11.70;59.70
78649;DHT22;67962;47.310;9.642;2023-03-23T02:35:52;11.50;60.70
78649;DHT22;67962;47.310;9.642;2023-03-23T02:38:25;11.40;60.60
78649;DHT22;67962;47.310;9.642;2023-03-23T02:40:54;11.40;60.60
78649;DHT22;67962;47.310;9.642;2023-03-23T02:43:23;11.30;61.00
78649;DHT22;67962;47.310;9.642;2023-03-23T02:45:52;11.40;61.10
78649;DHT22;67962;47.310;9.642;2023-03-23T02:48:20;11.40;60.80
78649;DHT22;67962;47.310;9.642;2023-03-23T02:50:51;11.40;61.00
78649;DHT22;67962;47.310;9.642;2023-03-23T02:53:23;11.40;61.10
78649;DHT22;67962;47.310;9.642;2023-03-23T02:55:51;11.40;61.90
78649;DHT22;67962;47.310;9.642;2023-03-23T02:58:18;11.50;61.20
78649;DHT22;67962;47.310;9.642;2023-03-23T03:00:44;11.50;61.20
78649;DHT22;67962;47.310;9.642;2023-03-23T03:03:16;11.50;61.20
78649;DHT22;67962;47.310;9.642;2023-03-23T03:05:52;11.50;61.20
78649;DHT22;67962;47.310;9.642;2023-03-23T03:08:40;11.40;61.00
78649;DHT22;67962;47.310;9.642;2023-03-23T03:11:13;11.50;61.00
78649;DHT22;67962;47.310;9.642;2023-03-23T03:18:55;11.50;61.50
78649;DHT22;67962;47.310;9.642;2023-03-23T03:21:25;11.60;61.20
78649;DHT22;67962;47.310;9.642;2023-03-23T03:23:55;11.60;60.90
78649;DHT22;67962;47.310;9.642;2023-03-23T03:26:22;11.60;60.90
78649;DHT22;67962;47.310;9.642;2023-03-23T03:28:53;11.60;61.30
78649;DHT22;67962;47.310;9.642;2023-03-23T03:31:32;11.60;61.50
78649;DHT22;67962;47.310;9.642;2023-03-23T03:33:59;11.60;61.20
78649;DHT22;67962;47.310;9.642;2023-03-23T03:36:29;11.50;61.30
78649;DHT22;67962;47.310;9.642;2023-03-23T03:39:02;11.50;61.50
78649;DHT22;67962;47.310;9.642;2023-03-23T03:41:30;11.60;61.50
78649;DHT22;67962;47.310;9.642;2023-03-23T03:43:56;11.70;61.10
78649;DHT22;67962;47.310;9.642;2023-03-23T03:46:21;11.70;61.20
78649;DHT22;67962;47.310;9.642;2023-03-23T03:48:47;11.70;61.00
78649;DHT22;67962;47.310;9.642;2023-03-23T03:51:13;11.70;60.60
78649;DHT22;67962;47.310;9.642;2023-03-23T03:53:39;11.70;61.00
78649;DHT22;67962;47.310;9.642;2023-03-23T03:56:05;11.70;61.20
78649;DHT22;67962;47.310;9.642;2023-03-23T03:58:30;11.70;61.30
78649;DHT22;67962;47.310;9.642;2023-03-23T04:01:00;11.80;61.40
78649;DHT22;67962;47.310;9.642;2023-03-23T04:03:27;11.80;61.00
78649;DHT22;67962;47.310;9.642;2023-03-23T04:05:56;11.80;61.10
78649;DHT22;67962;47.310;9.642;2023-03-23T04:08:24;11.90;61.00
78649;DHT22;67962;47.310;9.642;2023-03-23T04:10:52;12.00;61.10
78649;DHT22;67962;47.310;9.642;2023-03-23T04:13:19;12.00;61.30
78649;DHT22;67962;47.310;9.642;2023-03-23T04:15:46;12.00;61.00
78649;DHT22;67962;47.310;9.642;2023-03-23T04:18:13;12.00;60.70
78649;DHT22;67962;47.310;9.642;2023-03-23T04:20:41;12.00;60.90
78649;DHT22;67962;47.310;9.642;2023-03-23T04:23:08;12.00;60.80
78649;DHT22;67962;47.310;9.642;2023-03-23T04:25:34;12.10;60.80
78649;DHT22;67962;47.310;9.642;2023-03-23T04:28:01;12.10;60.40
78649;DHT22;67962;47.310;9.642;2023-03-23T04:30:28;12.10;60.60
78649;DHT22;67962;47.310;9.642;2023-03-23T04:32:54;12.20;60.50
78649;DHT22;67962;47.310;9.642;2023-03-23T04:35:23;12.20;60.00
78649;DHT22;67962;47.310;9.642;2023-03-23T04:37:54;12.30;59.60
78649;DHT22;67962;47.310;9.642;2023-03-23T04:40:21;12.30;59.00
78649;DHT22;67962;47.310;9.642;2023-03-23T04:42:47;12.30;59.40
78649;DHT22;67962;47.310;9.642;2023-03-23T04:45:16;12.40;59.50
78649;DHT22;67962;47.310;9.642;2023-03-23T04:47:48;12.40;59.80
78649;DHT22;67962;47.310;9.642;2023-03-23T04:50:20;12.30;60.60
78649;DHT22;67962;47.310;9.642;2023-03-23T04:52:50;12.30;60.40
78649;DHT22;67962;47.310;9.642;2023-03-23T04:55:17;12.20;60.30
78649;DHT22;67962;47.310;9.642;2023-03-23T04:57:43;12.20;60.30
78649;DHT22;67962;47.310;9.642;2023-03-23T05:00:10;12.10;60.60
78649;DHT22;67962;47.310;9.642;2023-03-23T05:02:42;12.10;60.30
78649;DHT22;67962;47.310;9.642;2023-03-23T05:05:10;12.10;60.00
78649;DHT22;67962;47.310;9.642;2023-03-23T05:07:40;12.20;60.00
78649;DHT22;67962;47.310;9.642;2023-03-23T05:10:08;12.20;60.00
78649;DHT22;67962;47.310;9.642;2023-03-23T05:12:34;12.20;59.90
78649;DHT22;67962;47.310;9.642;2023-03-23T05:15:00;12.30;58.60
78649;DHT22;67962;47.310;9.642;2023-03-23T05:17:26;12.30;58.40
78649;DHT22;67962;47.310;9.642;2023-03-23T05:19:52;12.40;58.50
78649;DHT22;67962;47.310;9.642;2023-03-23T05:22:19;12.40;58.80
78649;DHT22;67962;47.310;9.642;2023-03-23T05:24:47;12.40;59.10
78649;DHT22;67962;47.310;9.642;2023-03-23T05:27:13;12.30;59.50
78649;DHT22;67962;47.310;9.642;2023-03-23T05:29:40;12.20;59.90
78649;DHT22;67962;47.310;9.642;2023-03-23T05:32:07;12.30;59.90
78649;DHT22;67962;47.310;9.642;2023-03-23T05:34:34;12.30;59.80
78649;DHT22;67962;47.310;9.642;2023-03-23T05:37:01;12.30;59.30
78649;DHT22;67962;47.310;9.642;2023-03-23T05:39:28;12.30;59.50
78649;DHT22;67962;47.310;9.642;2023-03-23T05:41:55;12.30;58.70
78649;DHT22;67962;47.310;9.642;2023-03-23T05:44:21;12.30;59.00
78649;DHT22;67962;47.310;9.642;2023-03-23T05:46:47;12.40;58.50
78649;DHT22;67962;47.310;9.642;2023-03-23T05:49:14;12.40;58.10
78649;DHT22;67962;47.310;9.642;2023-03-23T05:51:42;12.40;57.40
78649;DHT22;67962;47.310;9.642;2023-03-23T05:54:09;12.40;58.20
78649;DHT22;67962;47.310;9.642;2023-03-23T05:56:36;12.50;57.70
78649;DHT22;67962;47.310;9.642;2023-03-23T05:59:02;12.50;57.00
78649;DHT22;67962;47.310;9.642;2023-03-23T06:01:28;12.60;57.00
78649;DHT22;67962;47.310;9.642;2023-03-23T06:03:54;12.60;56.80
78649;DHT22;67962;47.310;9.642;2023-03-23T06:06:27;12.70;56.90
78649;DHT22;67962;47.310;9.642;2023-03-23T06:08:55;12.80;57.40
78649;DHT22;67962;47.310;9.642;2023-03-23T06:11:22;12.80;57.60
78649;DHT22;67962;47.310;9.642;2023-03-23T06:13:48;12.90;58.20
78649;DHT22;67962;47.310;9.642;2023-03-23T06:16:14;12.80;58.70
78649;DHT22;67962;47.310;9.642;2023-03-23T06:18:41;12.80;59.00
78649;DHT22;67962;47.310;9.642;2023-03-23T06:21:08;12.80;59.40
78649;DHT22;67962;47.310;9.642;2023-03-23T06:23:34;12.90;59.00
78649;DHT22;67962;47.310;9.642;2023-03-23T06:26:03;12.90;58.90
78649;DHT22;67962;47.310;9.642;2023-03-23T06:28:29;13.00;58.50
78649;DHT22;67962;47.310;9.642;2023-03-23T06:30:54;13.00;57.40
78649;DHT22;67962;47.310;9.642;2023-03-23T06:33:20;12.90;57.40
78649;DHT22;67962;47.310;9.642;2023-03-23T06:35:46;12.90;57.20
78649;DHT22;67962;47.310;9.642;2023-03-23T06:38:13;12.80;57.10
78649;DHT22;67962;47.310;9.642;2023-03-23T06:40:39;12.80;57.00
78649;DHT22;67962;47.310;9.642;2023-03-23T06:43:05;12.90;55.40
78649;DHT22;67962;47.310;9.642;2023-03-23T06:45:31;12.90;55.20
78649;DHT22;67962;47.310;9.642;2023-03-23T06:47:57;13.00;55.40
78649;DHT22;67962;47.310;9.642;2023-03-23T06:50:23;13.10;55.10
78649;DHT22;67962;47.310;9.642;2023-03-23T06:52:50;13.20;54.00
78649;DHT22;67962;47.310;9.642;2023-03-23T06:55:17;13.30;53.60
78649;DHT22;67962;47.310;9.642;2023-03-23T06:57:44;13.40;53.40
78649;DHT22;67962;47.310;9.642;2023-03-23T07:00:11;13.60;53.20
78649;DHT22;67962;47.310;9.642;2023-03-23T07:02:39;13.70;51.80
78649;DHT22;67962;47.310;9.642;2023-03-23T07:05:07;13.90;51.60
78649;DHT22;67962;47.310;9.642;2023-03-23T07:07:32;14.00;51.20
78649;DHT22;67962;47.310;9.642;2023-03-23T07:09:58;14.10;50.70
78649;DHT22;67962;47.310;9.642;2023-03-23T07:12:24;14.20;48.60
78649;DHT22;67962;47.310;9.642;2023-03-23T07:14:50;14.30;48.90
78649;DHT22;67962;47.310;9.642;2023-03-23T07:17:15;14.30;47.60
78649;DHT22;67962;47.310;9.642;2023-03-23T07:19:41;14.30;47.50
78649;DHT22;67962;47.310;9.642;2023-03-23T07:22:07;14.40;47.00
78649;DHT22;67962;47.310;9.642;2023-03-23T07:24:34;14.50;47.60
78649;DHT22;67962;47.310;9.642;2023-03-23T07:27:00;14.50;46.70
78649;DHT22;67962;47.310;9.642;2023-03-23T07:29:26;14.50;46.70
78649;DHT22;67962;47.310;9.642;2023-03-23T07:31:53;14.60;47.10
78649;DHT22;67962;47.310;9.642;2023-03-23T07:34:19;14.70;47.20
78649;DHT22;67962;47.310;9.642;2023-03-23T07:36:45;14.70;48.70
78649;DHT22;67962;47.310;9.642;2023-03-23T07:39:12;14.70;48.30
78649;DHT22;67962;47.310;9.642;2023-03-23T07:41:38;14.80;48.00
78649;DHT22;67962;47.310;9.642;2023-03-23T07:44:06;14.90;48.00
78649;DHT22;67962;47.310;9.642;2023-03-23T07:46:32;15.00;47.60
78649;DHT22;67962;47.310;9.642;2023-03-23T07:49:00;15.10;47.10
78649;DHT22;67962;47.310;9.642;2023-03-23T07:51:30;15.20;47.10
78649;DHT22;67962;47.310;9.642;2023-03-23T07:53:55;15.30;47.50
78649;DHT22;67962;47.310;9.642;2023-03-23T07:56:22;15.30;47.50
78649;DHT22;67962;47.310;9.642;2023-03-23T07:58:48;15.40;46.80
78649;DHT22;67962;47.310;9.642;2023-03-23T08:01:15;15.40;45.70
78649;DHT22;67962;47.310;9.642;2023-03-23T08:03:41;15.50;45.90
78649;DHT22;67962;47.310;9.642;2023-03-23T08:06:08;15.60;45.60
78649;DHT22;67962;47.310;9.642;2023-03-23T08:08:35;15.70;45.80
78649;DHT22;67962;47.310;9.642;2023-03-23T08:11:02;15.80;46.10
78649;DHT22;67962;47.310;9.642;2023-03-23T08:13:28;15.90;46.10
78649;DHT22;67962;47.310;9.642;2023-03-23T08:15:54;16.00;45.90
78649;DHT22;67962;47.310;9.642;2023-03-23T08:18:20;16.10;44.30
78649;DHT22;67962;47.310;9.642;2023-03-23T08:20:46;16.20;44.90
78649;DHT22;67962;47.310;9.642;2023-03-23T08:23:12;16.30;44.70
78649;DHT22;67962;47.310;9.642;2023-03-23T08:25:41;16.30;42.00
78649;DHT22;67962;47.310;9.642;2023-03-23T08:28:08;16.30;42.00
78649;DHT22;67962;47.310;9.642;2023-03-23T08:30:35;16.40;42.00
78649;DHT22;67962;47.310;9.642;2023-03-23T08:33:03;16.60;41.60
78649;DHT22;67962;47.310;9.642;2023-03-23T08:35:30;16.70;40.10
78649;DHT22;67962;47.310;9.642;2023-03-23T08:37:56;16.90;39.90
78649;DHT22;67962;47.310;9.642;2023-03-23T08:40:23;17.00;40.00
78649;DHT22;67962;47.310;9.642;2023-03-23T08:42:51;17.10;39.70
78649;DHT22;67962;47.310;9.642;2023-03-23T08:45:22;17.20;40.30
78649;DHT22;67962;47.310;9.642;2023-03-23T08:47:49;17.40;40.40
78649;DHT22;67962;47.310;9.642;2023-03-23T08:50:20;17.50;39.90
78649;DHT22;67962;47.310;9.642;2023-03-23T08:52:46;17.60;39.90
78649;DHT22;67962;47.310;9.642;2023-03-23T08:55:13;17.80;40.20
78649;DHT22;67962;47.310;9.642;2023-03-23T08:57:39;18.00;40.10
78649;DHT22;67962;47.310;9.642;2023-03-23T09:00:07;18.10;39.50
78649;DHT22;67962;47.310;9.642;2023-03-23T09:02:41;18.30;38.00
78649;DHT22;67962;47.310;9.642;2023-03-23T09:05:08;18.50;37.60
78649;DHT22;67962;47.310;9.642;2023-03-23T09:07:37;18.60;37.00
78649;DHT22;67962;47.310;9.642;2023-03-23T09:10:03;18.70;36.30
78649;DHT22;67962;47.310;9.642;2023-03-23T09:12:29;18.70;37.10
78649;DHT22;67962;47.310;9.642;2023-03-23T09:14:55;18.70;38.70
78649;DHT22;67962;47.310;9.642;2023-03-23T09:17:21;18.70;39.20
78649;DHT22;67962;47.310;9.642;2023-03-23T09:19:47;18.70;38.10
78649;DHT22;67962;47.310;9.642;2023-03-23T09:22:12;18.70;37.50
78649;DHT22;67962;47.310;9.642;2023-03-23T09:24:40;18.70;37.60
78649;DHT22;67962;47.310;9.642;2023-03-23T09:27:06;18.70;37.10
78649;DHT22;67962;47.310;9.642;2023-03-23T09:29:32;18.60;36.70
78649;DHT22;67962;47.310;9.642;2023-03-23T09:31:57;18.70;37.70
78649;DHT22;67962;47.310;9.642;2023-03-23T09:34:23;18.70;35.80
78649;DHT22;67962;47.310;9.642;2023-03-23T09:36:49;18.70;36.00
78649;DHT22;67962;47.310;9.642;2023-03-23T09:39:15;18.70;35.30
78649;DHT22;67962;47.310;9.642;2023-03-23T09:45:03;18.80;35.90
78649;DHT22;67962;47.310;9.642;2023-03-23T09:47:46;18.90;36.00
78649;DHT22;67962;47.310;9.642;2023-03-23T09:50:18;18.90;35.60
78649;DHT22;67962;47.310;9.642;2023-03-23T09:53:00;19.00;34.90
78649;DHT22;67962;47.310;9.642;2023-03-23T09:55:27;19.00;35.00
78649;DHT22;67962;47.310;9.642;2023-03-23T10:00:36;19.20;41.90
78649;DHT22;67962;47.310;9.642;2023-03-23T10:03:15;19.30;37.50
78649;DHT22;67962;47.310;9.642;2023-03-23T10:05:46;19.30;34.40
78649;DHT22;67962;47.310;9.642;2023-03-23T10:08:17;19.30;32.80
78649;DHT22;67962;47.310;9.642;2023-03-23T10:11:03;19.30;33.50
78649;DHT22;67962;47.310;9.642;2023-03-23T10:16:07;19.40;34.80
78649;DHT22;67962;47.310;9.642;2023-03-23T10:21:34;19.50;32.10
78649;DHT22;67962;47.310;9.642;2023-03-23T10:24:04;19.60;33.70
78649;DHT22;67962;47.310;9.642;2023-03-23T10:29:28;19.90;33.30
78649;DHT22;67962;47.310;9.642;2023-03-23T10:32:09;20.10;32.40
78649;DHT22;67962;47.310;9.642;2023-03-23T10:34:41;20.00;31.20
78649;DHT22;67962;47.310;9.642;2023-03-23T10:39:56;20.10;32.80
78649;DHT22;67962;47.310;9.642;2023-03-23T10:42:25;20.30;34.60
78649;DHT22;67962;47.310;9.642;2023-03-23T10:44:52;20.40;33.70
78649;DHT22;67962;47.310;9.642;2023-03-23T10:47:18;20.50;35.10
78649;DHT22;67962;47.310;9.642;2023-03-23T10:49:58;20.60;34.10
78649;DHT22;67962;47.310;9.642;2023-03-23T10:52:35;20.70;32.60
78649;DHT22;67962;47.310;9.642;2023-03-23T10:55:16;20.80;34.30
78649;DHT22;67962;47.310;9.642;2023-03-23T10:57:58;20.70;32.00
78649;DHT22;67962;47.310;9.642;2023-03-23T11:00:26;20.60;31.60
78649;DHT22;67962;47.310;9.642;2023-03-23T11:03:00;20.50;33.40
78649;DHT22;67962;47.310;9.642;2023-03-23T11:05:37;20.60;35.40
78649;DHT22;67962;47.310;9.642;2023-03-23T11:08:12;20.60;33.20
78649;DHT22;67962;47.310;9.642;2023-03-23T11:10:47;20.70;33.30
78649;DHT22;67962;47.310;9.642;2023-03-23T11:13:16;20.60;33.50
78649;DHT22;67962;47.310;9.642;2023-03-23T11:15:44;20.60;33.10
78649;DHT22;67962;47.310;9.642;2023-03-23T11:18:38;20.50;34.00
78649;DHT22;67962;47.310;9.642;2023-03-23T11:21:05;20.60;34.00
78649;DHT22;67962;47.310;9.642;2023-03-23T11:23:37;20.70;34.10
78649;DHT22;67962;47.310;9.642;2023-03-23T11:26:27;20.90;33.70
78649;DHT22;67962;47.310;9.642;2023-03-23T11:31:36;21.00;31.50
78649;DHT22;67962;47.310;9.642;2023-03-23T11:37:19;21.20;32.00
78649;DHT22;67962;47.310;9.642;2023-03-23T11:41:49;21.40;31.70
78649;DHT22;67962;47.310;9.642;2023-03-23T11:44:15;21.40;30.60
78649;DHT22;67962;47.310;9.642;2023-03-23T11:46:50;21.50;31.30
78649;DHT22;67962;47.310;9.642;2023-03-23T11:52:43;21.40;30.50
78649;DHT22;67962;47.310;9.642;2023-03-23T11:58:11;21.60;30.10
78649;DHT22;67962;47.310;9.642;2023-03-23T12:00:44;21.70;30.60
78649;DHT22;67962;47.310;9.642;2023-03-23T12:04:00;21.90;31.10
78649;DHT22;67962;47.310;9.642;2023-03-23T12:06:57;21.90;30.70
78649;DHT22;67962;47.310;9.642;2023-03-23T12:12:35;21.60;30.10
78649;DHT22;67962;47.310;9.642;2023-03-23T12:31:47;22.60;28.20
78649;DHT22;67962;47.310;9.642;2023-03-23T12:34:42;22.50;28.70
78649;DHT22;67962;47.310;9.642;2023-03-23T12:59:22;22.60;28.30
78649;DHT22;67962;47.310;9.642;2023-03-23T13:01:55;22.60;28.70
78649;DHT22;67962;47.310;9.642;2023-03-23T13:04:27;22.40;27.90
78649;DHT22;67962;47.310;9.642;2023-03-23T13:06:55;22.40;28.30
78649;DHT22;67962;47.310;9.642;2023-03-23T13:12:11;22.30;28.50
78649;DHT22;67962;47.310;9.642;2023-03-23T13:28:04;21.80;32.20
78649;DHT22;67962;47.310;9.642;2023-03-23T13:30:31;21.80;31.20
78649;DHT22;67962;47.310;9.642;2023-03-23T13:33:11;21.90;32.00
78649;DHT22;67962;47.310;9.642;2023-03-23T13:35:40;21.90;32.00
78649;DHT22;67962;47.310;9.642;2023-03-23T13:38:22;21.90;31.10
78649;DHT22;67962;47.310;9.642;2023-03-23T13:40:50;21.70;32.70
78649;DHT22;67962;47.310;9.642;2023-03-23T13:43:26;21.70;32.00
78649;DHT22;67962;47.310;9.642;2023-03-23T13:45:53;21.60;31.90
78649;DHT22;67962;47.310;9.642;2023-03-23T13:48:23;21.50;31.80
78649;DHT22;67962;47.310;9.642;2023-03-23T13:50:58;21.60;30.90
78649;DHT22;67962;47.310;9.642;2023-03-23T13:53:47;21.40;32.00
78649;DHT22;67962;47.310;9.642;2023-03-23T13:56:20;21.50;31.30
78649;DHT22;67962;47.310;9.642;2023-03-23T13:58:51;21.30;31.10
78649;DHT22;67962;47.310;9.642;2023-03-23T14:01:33;21.10;31.50
78649;DHT22;67962;47.310;9.642;2023-03-23T14:04:03;20.80;32.90
78649;DHT22;67962;47.310;9.642;2023-03-23T14:06:34;20.70;32.40
78649;DHT22;67962;47.310;9.642;2023-03-23T14:09:36;20.60;32.70
78649;DHT22;67962;47.310;9.642;2023-03-23T14:12:15;20.60;32.40
78649;DHT22;67962;47.310;9.642;2023-03-23T14:14:56;20.50;33.30
78649;DHT22;67962;47.310;9.642;2023-03-23T14:17:28;20.50;32.80
78649;DHT22;67962;47.310;9.642;2023-03-23T14:19:57;20.60;32.30
78649;DHT22;67962;47.310;9.642;2023-03-23T14:25:09;20.60;32.20
78649;DHT22;67962;47.310;9.642;2023-03-23T14:27:35;20.50;32.80
78649;DHT22;67962;47.310;9.642;2023-03-23T14:30:07;20.50;33.40
78649;DHT22;67962;47.310;9.642;2023-03-23T14:32:34;20.50;33.20
78649;DHT22;67962;47.310;9.642;2023-03-23T14:35:06;20.60;33.50
78649;DHT22;67962;47.310;9.642;2023-03-23T14:37:33;20.60;32.90
78649;DHT22;67962;47.310;9.642;2023-03-23T14:40:01;20.60;32.60
78649;DHT22;67962;47.310;9.642;2023-03-23T14:42:32;20.50;32.60
78649;DHT22;67962;47.310;9.642;2023-03-23T14:45:00;20.40;33.50
78649;DHT22;67962;47.310;9.642;2023-03-23T14:47:32;20.50;32.60
78649;DHT22;67962;47.310;9.642;2023-03-23T14:50:00;20.50;33.00
78649;DHT22;67962;47.310;9.642;2023-03-23T14:52:34;20.40;33.00
78649;DHT22;67962;47.310;9.642;2023-03-23T14:55:14;20.30;34.00
78649;DHT22;67962;47.310;9.642;2023-03-23T14:57:41;20.20;33.60
78649;DHT22;67962;47.310;9.642;2023-03-23T15:00:22;20.20;34.60
78649;DHT22;67962;47.310;9.642;2023-03-23T15:02:54;20.20;33.60
78649;DHT22;67962;47.310;9.642;2023-03-23T15:05:33;20.10;34.30
78649;DHT22;67962;47.310;9.642;2023-03-23T15:08:05;20.00;34.40
78649;DHT22;67962;47.310;9.642;2023-03-23T15:10:31;20.00;34.40
78649;DHT22;67962;47.310;9.642;2023-03-23T15:12:57;19.90;34.50
78649;DHT22;67962;47.310;9.642;2023-03-23T15:15:30;20.00;34.40
78649;DHT22;67962;47.310;9.642;2023-03-23T15:17:57;20.00;34.30
78649;DHT22;67962;47.310;9.642;2023-03-23T15:22:51;20.00;34.40
78649;DHT22;67962;47.310;9.642;2023-03-23T15:25:28;20.00;34.50
78649;DHT22;67962;47.310;9.642;2023-03-23T15:30:48;20.00;34.60
78649;DHT22;67962;47.310;9.642;2023-03-23T15:33:15;20.10;34.10
78649;DHT22;67962;47.310;9.642;2023-03-23T15:35:47;20.00;34.30
78649;DHT22;67962;47.310;9.642;2023-03-23T15:38:30;19.80;35.00
78649;DHT22;67962;47.310;9.642;2023-03-23T15:41:05;19.70;35.00
78649;DHT22;67962;47.310;9.642;2023-03-23T15:43:48;19.70;35.90
78649;DHT22;67962;47.310;9.642;2023-03-23T15:48:52;19.40;35.70
78649;DHT22;67962;47.310;9.642;2023-03-23T15:51:23;19.40;36.90
78649;DHT22;67962;47.310;9.642;2023-03-23T15:53:53;19.30;36.00
78649;DHT22;67962;47.310;9.642;2023-03-23T15:56:20;19.20;38.10
78649;DHT22;67962;47.310;9.642;2023-03-23T15:58:46;19.10;37.90
78649;DHT22;67962;47.310;9.642;2023-03-23T16:01:18;19.00;39.50
78649;DHT22;67962;47.310;9.642;2023-03-23T16:03:51;19.00;39.00
78649;DHT22;67962;47.310;9.642;2023-03-23T16:06:19;19.00;38.90
78649;DHT22;67962;47.310;9.642;2023-03-23T16:08:44;18.90;38.20
78649;DHT22;67962;47.310;9.642;2023-03-23T16:11:15;18.90;38.50
78649;DHT22;67962;47.310;9.642;2023-03-23T16:13:42;18.90;39.70
78649;DHT22;67962;47.310;9.642;2023-03-23T16:16:17;18.90;38.80
78649;DHT22;67962;47.310;9.642;2023-03-23T16:18:43;19.00;39.50
78649;DHT22;67962;47.310;9.642;2023-03-23T16:21:09;19.00;39.40
78649;DHT22;67962;47.310;9.642;2023-03-23T16:23:35;19.00;38.40
78649;DHT22;67962;47.310;9.642;2023-03-23T16:26:01;18.80;39.00
78649;DHT22;67962;47.310;9.642;2023-03-23T16:28:26;18.80;38.90
78649;DHT22;67962;47.310;9.642;2023-03-23T16:30:52;18.60;40.50
78649;DHT22;67962;47.310;9.642;2023-03-23T16:33:18;18.40;40.70
78649;DHT22;67962;47.310;9.642;2023-03-23T16:35:44;18.30;40.40
78649;DHT22;67962;47.310;9.642;2023-03-23T16:38:12;18.30;40.40
78649;DHT22;67962;47.310;9.642;2023-03-23T16:40:41;18.10;40.80
78649;DHT22;67962;47.310;9.642;2023-03-23T16:43:07;18.00;41.50
78649;DHT22;67962;47.310;9.642;2023-03-23T16:45:33;17.90;41.50
78649;DHT22;67962;47.310;9.642;2023-03-23T16:47:59;17.90;41.50
78649;DHT22;67962;47.310;9.642;2023-03-23T16:50:27;17.90;41.80
78649;DHT22;67962;47.310;9.642;2023-03-23T16:52:54;17.80;41.50
78649;DHT22;67962;47.310;9.642;2023-03-23T16:55:21;17.70;41.90
78649;DHT22;67962;47.310;9.642;2023-03-23T16:57:47;17.70;41.80
78649;DHT22;67962;47.310;9.642;2023-03-23T17:00:15;17.70;42.10
78649;DHT22;67962;47.310;9.642;2023-03-23T17:02:45;17.60;42.80
78649;DHT22;67962;47.310;9.642;2023-03-23T17:05:12;17.60;42.90
78649;DHT22;67962;47.310;9.642;2023-03-23T17:07:39;17.60;43.30
78649;DHT22;67962;47.310;9.642;2023-03-23T17:10:07;17.60;43.20
78649;DHT22;67962;47.310;9.642;2023-03-23T17:12:34;17.60;42.60
78649;DHT22;67962;47.310;9.642;2023-03-23T17:15:00;17.60;42.50
78649;DHT22;67962;47.310;9.642;2023-03-23T17:17:27;17.60;42.60
78649;DHT22;67962;47.310;9.642;2023-03-23T17:19:53;17.70;42.90
78649;DHT22;67962;47.310;9.642;2023-03-23T17:22:19;17.70;43.10
78649;DHT22;67962;47.310;9.642;2023-03-23T17:24:45;17.80;43.30
78649;DHT22;67962;47.310;9.642;2023-03-23T17:27:13;17.80;44.00
78649;DHT22;67962;47.310;9.642;2023-03-23T17:29:39;17.80;44.00
78649;DHT22;67962;47.310;9.642;2023-03-23T17:32:05;17.80;44.00
78649;DHT22;67962;47.310;9.642;2023-03-23T17:34:31;17.80;44.40
78649;DHT22;67962;47.310;9.642;2023-03-23T17:36:57;17.80;44.80
78649;DHT22;67962;47.310;9.642;2023-03-23T17:39:23;17.80;45.70
78649;DHT22;67962;47.310;9.642;2023-03-23T17:41:49;17.70;46.20
78649;DHT22;67962;47.310;9.642;2023-03-23T17:44:15;17.70;46.30
78649;DHT22;67962;47.310;9.642;2023-03-23T17:46:41;17.60;46.10